Mt Bomar Mars — 9HCM9 — position and weather

sailwx.info

Track history (hours):
 
Tides and Currents Weather Stations Pressure Air Temp Water Temp Dewpoint Dewpoint Depression Visibility Wind Speed Wind Dir Waves Ship Positions

Mt Bomar Mars

Last reported at 2017-Mar-23 13:31 UTC. Time now 2017-Mar-23 14:15 UTC.
Position N 53°19' W 002°57'.

Length 107 m; draft 5 m.

Type: Ship. MMSI: 256784000.

Date/timePositionNaut miles runAvg speedWind from/ knotsBaromVisibWave heightAir tempDewpointWater temp
2017-Mar-23 13:31N 53°19' W 002°57'0 0.0
2017-Mar-23 12:31N 53°19' W 002°57'0 0.0
2017-Mar-23 11:31N 53°19' W 002°57'0 0.0
2017-Mar-23 10:31N 53°19' W 002°57'0 0.0
2017-Mar-23 09:31N 53°19' W 002°57'0 0.0
2017-Mar-23 08:19N 53°19' W 002°57'0 0.0
2017-Mar-23 07:31N 53°19' W 002°57'0 0.0
2017-Mar-23 06:31N 53°19' W 002°57'0 0.0
2017-Mar-23 05:31N 53°19' W 002°57'0 0.0
2017-Mar-23 04:31N 53°19' W 002°57'0 0.0
2017-Mar-23 03:31N 53°19' W 002°57'0 0.0
2017-Mar-23 02:28N 53°19' W 002°57'0 0.0
2017-Mar-23 01:31N 53°19' W 002°57'0 0.0
2017-Mar-23 00:31N 53°19' W 002°57'0 0.0
2017-Mar-22 23:28N 53°19' W 002°57'0 0.0
2017-Mar-22 22:31N 53°19' W 002°57'0 0.0
2017-Mar-22 21:31N 53°19' W 002°57'0 0.0
2017-Mar-22 20:28N 53°19' W 002°57'0 0.0
2017-Mar-22 19:31N 53°19' W 002°57'0 0.0
2017-Mar-22 18:31N 53°19' W 002°57'0 0.0
2017-Mar-22 17:31N 53°19' W 002°57'0 0.0
2017-Mar-22 16:31N 53°19' W 002°57'0 0.0
2017-Mar-22 15:31N 53°19' W 002°57'0 0.0
2017-Mar-22 14:31N 53°19' W 002°57'0 0.0
2017-Mar-22 13:31N 53°19' W 002°57'0 0.0
2017-Mar-22 12:31N 53°19' W 002°57'0 0.0
2017-Mar-22 11:31N 53°19' W 002°57'0 0.0
2017-Mar-22 10:31N 53°19' W 002°57'0 0.0
2017-Mar-22 09:31N 53°19' W 002°57'0 0.0
2017-Mar-22 08:28N 53°19' W 002°57'0 0.0
2017-Mar-22 07:31N 53°19' W 002°57'0 0.2
2017-Mar-22 06:31N 53°19' W 002°57'8 8.1
2017-Mar-22 05:33N 53°27' W 003°02'10 9.6
2017-Mar-22 04:33N 53°31' W 003°16'6 5.6
2017-Mar-22 03:30N 53°30' W 003°26'0 0.0
2017-Mar-22 02:30N 53°30' W 003°26'0 0.0
2017-Mar-22 01:33N 53°30' W 003°26'0 0.0
2017-Mar-22 00:30N 53°30' W 003°26'0 0.0
2017-Mar-21 23:33N 53°30' W 003°26'0 0.0
2017-Mar-21 22:33N 53°30' W 003°26'0 0.0
2017-Mar-21 21:33N 53°30' W 003°25'0 0.0
2017-Mar-21 20:33N 53°30' W 003°25'0 0.1
2017-Mar-21 19:33N 53°30' W 003°25'0 0.0
2017-Mar-21 18:33N 53°30' W 003°25'0 0.0
2017-Mar-21 17:33N 53°30' W 003°25'0 0.0
2017-Mar-21 16:33N 53°30' W 003°25'0 0.1
2017-Mar-21 15:33N 53°30' W 003°25'0 0.0
2017-Mar-21 14:33N 53°30' W 003°25'0 0.0
2017-Mar-21 13:30N 53°30' W 003°25'0 0.0
2017-Mar-21 12:33N 53°30' W 003°25'0 0.0
2017-Mar-21 11:33N 53°30' W 003°25'0 0.0
2017-Mar-21 10:27N 53°30' W 003°25'0 0.0
2017-Mar-21 09:30N 53°30' W 003°25'0 0.0
2017-Mar-21 08:33N 53°30' W 003°25'0 0.0
2017-Mar-21 07:33N 53°30' W 003°25'0 0.0
2017-Mar-21 06:33N 53°30' W 003°25'2 2.0
2017-Mar-21 05:33N 53°30' W 003°29'9 8.8
2017-Mar-21 04:33N 53°31' W 003°43'319 8.6
2017-Mar-19 15:33N 48°19' W 005°27'9 9.4
2017-Mar-19 14:33N 48°11' W 005°19'9 9.2
2017-Mar-19 13:33N 48°03' W 005°11'11 8.8
2017-Mar-19 12:19N 47°55' W 005°02'63 8.9
2017-Mar-19 05:15N 47°08' W 003°60'143 2.9
2017-Mar-17 04:31N 45°38' W 001°17'1010.4
2017-Mar-17 03:33N 45°32' W 001°28'3210.8
2017-Mar-17 00:33N 45°03' W 001°51'  
Track history (hours):
 
Tides and Currents Weather Stations Pressure Air Temp Water Temp Dewpoint Dewpoint Depression Visibility Wind Speed Wind Dir Waves Ship Positions

Mt Bomar Mars

Last reported at 2017-Mar-23 13:31 UTC. Time now 2017-Mar-23 14:15 UTC.
Position N 53°19' W 002°57'.

Length 107 m; draft 5 m.

Type: Ship. MMSI: 256784000.

Date/timePositionNaut miles runAvg speedWind from/ knotsBaromVisibWave heightAir tempDewpointWater temp
2017-Mar-23 13:31N 53°19' W 002°57'0 0.0
2017-Mar-23 12:31N 53°19' W 002°57'0 0.0
2017-Mar-23 11:31N 53°19' W 002°57'0 0.0
2017-Mar-23 10:31N 53°19' W 002°57'0 0.0
2017-Mar-23 09:31N 53°19' W 002°57'0 0.0
2017-Mar-23 08:19N 53°19' W 002°57'0 0.0
2017-Mar-23 07:31N 53°19' W 002°57'0 0.0
2017-Mar-23 06:31N 53°19' W 002°57'0 0.0
2017-Mar-23 05:31N 53°19' W 002°57'0 0.0
2017-Mar-23 04:31N 53°19' W 002°57'0 0.0
2017-Mar-23 03:31N 53°19' W 002°57'0 0.0
2017-Mar-23 02:28N 53°19' W 002°57'0 0.0
2017-Mar-23 01:31N 53°19' W 002°57'0 0.0
2017-Mar-23 00:31N 53°19' W 002°57'0 0.0
2017-Mar-22 23:28N 53°19' W 002°57'0 0.0
2017-Mar-22 22:31N 53°19' W 002°57'0 0.0
2017-Mar-22 21:31N 53°19' W 002°57'0 0.0
2017-Mar-22 20:28N 53°19' W 002°57'0 0.0
2017-Mar-22 19:31N 53°19' W 002°57'0 0.0
2017-Mar-22 18:31N 53°19' W 002°57'0 0.0
2017-Mar-22 17:31N 53°19' W 002°57'0 0.0
2017-Mar-22 16:31N 53°19' W 002°57'0 0.0
2017-Mar-22 15:31N 53°19' W 002°57'0 0.0
2017-Mar-22 14:31N 53°19' W 002°57'0 0.0
2017-Mar-22 13:31N 53°19' W 002°57'0 0.0
2017-Mar-22 12:31N 53°19' W 002°57'0 0.0
2017-Mar-22 11:31N 53°19' W 002°57'0 0.0
2017-Mar-22 10:31N 53°19' W 002°57'0 0.0
2017-Mar-22 09:31N 53°19' W 002°57'0 0.0
2017-Mar-22 08:28N 53°19' W 002°57'0 0.0
2017-Mar-22 07:31N 53°19' W 002°57'0 0.2
2017-Mar-22 06:31N 53°19' W 002°57'8 8.1
2017-Mar-22 05:33N 53°27' W 003°02'10 9.6
2017-Mar-22 04:33N 53°31' W 003°16'6 5.6
2017-Mar-22 03:30N 53°30' W 003°26'0 0.0
2017-Mar-22 02:30N 53°30' W 003°26'0 0.0
2017-Mar-22 01:33N 53°30' W 003°26'0 0.0
2017-Mar-22 00:30N 53°30' W 003°26'0 0.0
2017-Mar-21 23:33N 53°30' W 003°26'0 0.0
2017-Mar-21 22:33N 53°30' W 003°26'0 0.0
2017-Mar-21 21:33N 53°30' W 003°25'0 0.0
2017-Mar-21 20:33N 53°30' W 003°25'0 0.1
2017-Mar-21 19:33N 53°30' W 003°25'0 0.0
2017-Mar-21 18:33N 53°30' W 003°25'0 0.0
2017-Mar-21 17:33N 53°30' W 003°25'0 0.0
2017-Mar-21 16:33N 53°30' W 003°25'0 0.1
2017-Mar-21 15:33N 53°30' W 003°25'0 0.0
2017-Mar-21 14:33N 53°30' W 003°25'0 0.0
2017-Mar-21 13:30N 53°30' W 003°25'0 0.0
2017-Mar-21 12:33N 53°30' W 003°25'0 0.0
2017-Mar-21 11:33N 53°30' W 003°25'0 0.0
2017-Mar-21 10:27N 53°30' W 003°25'0 0.0
2017-Mar-21 09:30N 53°30' W 003°25'0 0.0
2017-Mar-21 08:33N 53°30' W 003°25'0 0.0
2017-Mar-21 07:33N 53°30' W 003°25'0 0.0
2017-Mar-21 06:33N 53°30' W 003°25'2 2.0
2017-Mar-21 05:33N 53°30' W 003°29'9 8.8
2017-Mar-21 04:33N 53°31' W 003°43'319 8.6
2017-Mar-19 15:33N 48°19' W 005°27'9 9.4
2017-Mar-19 14:33N 48°11' W 005°19'9 9.2
2017-Mar-19 13:33N 48°03' W 005°11'11 8.8
2017-Mar-19 12:19N 47°55' W 005°02'63 8.9
2017-Mar-19 05:15N 47°08' W 003°60'143 2.9
2017-Mar-17 04:31N 45°38' W 001°17'1010.4
2017-Mar-17 03:33N 45°32' W 001°28'3210.8
2017-Mar-17 00:33N 45°03' W 001°51'  

Dump ship's entire track history